Time,TemperatureF,DewpointF,PressureIn,WindDirection,WindDirectionDegrees,WindSpeedMPH,WindSpeedGustMPH,Humidity,HourlyPrecipIn,Conditions,Clouds,dailyrainin,SoftwareType,DateUTC
2013-07-31 00:12:00,68.7,65.0,29.85,NNE,19,0.0,0.0,89,0.00,,,0.00,weatherlink.com 1.10,2013-07-31 05:12:00,
2013-07-31 00:27:00,67.3,64.0,29.85,NNE,19,0.0,0.0,89,0.00,,,0.00,weatherlink.com 1.10,2013-07-31 05:27:00,
2013-07-31 00:42:00,66.5,64.0,29.85,SSE,150,0.0,0.0,91,0.00,,,0.00,weatherlink.com 1.10,2013-07-31 05:42:00,
2013-07-31 00:57:00,66.4,64.0,29.85,SSE,158,0.0,1.0,92,0.00,,,0.00,weatherlink.com 1.10,2013-07-31 05:57:00,
2013-07-31 01:12:00,65.5,63.0,29.84,SSE,158,0.0,0.0,92,0.00,,,0.00,weatherlink.com 1.10,2013-07-31 06:12:00,
2013-07-31 01:27:00,65.3,63.0,29.84,SSE,164,0.0,1.0,93,0.00,,,0.00,weatherlink.com 1.10,2013-07-31 06:27:00,
2013-07-31 01:42:00,64.4,63.0,29.84,ESE,108,0.0,1.0,94,0.00,,,0.00,weatherlink.com 1.10,2013-07-31 06:42:00,
2013-07-31 01:57:00,64.3,62.0,29.84,ESE,108,0.0,0.0,93,0.00,,,0.00,weatherlink.com 1.10,2013-07-31 06:57:00,
2013-07-31 02:12:00,63.8,62.0,29.84,ESE,108,0.0,0.0,94,0.00,,,0.00,weatherlink.com 1.10,2013-07-31 07:12:00,
2013-07-31 02:27:00,63.6,62.0,29.85,ESE,108,0.0,0.0,95,0.00,,,0.00,weatherlink.com 1.10,2013-07-31 07:27:00,
2013-07-31 02:42:00,63.1,61.0,29.85,NW,308,0.0,0.0,94,0.00,,,0.00,weatherlink.com 1.10,2013-07-31 07:42:00,
2013-07-31 02:57:00,63.0,62.0,29.85,NW,308,0.0,0.0,95,0.00,,,0.00,weatherlink.com 1.10,2013-07-31 07:57:00,
2013-07-31 03:12:00,64.1,63.0,29.86,WNW,295,0.0,0.0,95,0.00,,,0.00,weatherlink.com 1.10,2013-07-31 08:12:00,
2013-07-31 03:27:00,62.7,61.0,29.86,WNW,295,0.0,0.0,94,0.00,,,0.00,weatherlink.com 1.10,2013-07-31 08:27:00,
2013-07-31 03:42:00,61.9,61.0,29.84,NNE,15,0.0,0.0,95,0.00,,,0.00,weatherlink.com 1.10,2013-07-31 08:42:00,
2013-07-31 03:57:00,62.7,61.0,29.84,NE,48,0.0,0.0,95,0.00,,,0.00,weatherlink.com 1.10,2013-07-31 08:57:00,
2013-07-31 04:12:00,63.0,62.0,29.85,NW,304,0.0,0.0,96,0.00,,,0.00,weatherlink.com 1.10,2013-07-31 09:12:00,
2013-07-31 04:28:00,61.8,60.0,29.86,West,280,0.0,2.0,95,0.00,,,0.00,weatherlink.com 1.10,2013-07-31 09:28:00,
2013-07-31 04:43:00,62.0,61.0,29.86,West,280,1.0,1.0,96,0.00,,,0.00,weatherlink.com 1.10,2013-07-31 09:43:00,
2013-07-31 04:58:00,62.6,62.0,29.87,WNW,283,0.0,2.0,96,0.00,,,0.00,weatherlink.com 1.10,2013-07-31 09:58:00,
2013-07-31 05:13:00,62.6,62.0,29.87,WNW,291,0.0,1.0,96,0.00,,,0.00,weatherlink.com 1.10,2013-07-31 10:13:00,
2013-07-31 05:28:00,62.5,61.0,29.86,WNW,291,0.0,1.0,96,0.00,,,0.00,weatherlink.com 1.10,2013-07-31 10:28:00,
2013-07-31 05:43:00,61.6,61.0,29.84,NNE,20,1.0,1.0,96,0.00,,,0.00,weatherlink.com 1.10,2013-07-31 10:43:00,
2013-07-31 05:58:00,61.4,60.0,29.83,SE,142,2.0,3.0,96,0.00,,,0.00,weatherlink.com 1.10,2013-07-31 10:58:00,
2013-07-31 06:13:00,62.2,61.0,29.84,NW,320,0.0,1.0,96,0.00,,,0.00,weatherlink.com 1.10,2013-07-31 11:13:00,
2013-07-31 06:28:00,62.6,62.0,29.85,SSE,150,1.0,6.0,96,0.00,,,0.00,weatherlink.com 1.10,2013-07-31 11:28:00,
2013-07-31 06:43:00,62.2,61.0,29.87,WNW,294,4.0,4.0,96,0.00,,,0.00,weatherlink.com 1.10,2013-07-31 11:43:00,
2013-07-31 06:58:00,62.9,62.0,29.88,NNW,335,1.0,5.0,97,0.00,,,0.00,weatherlink.com 1.10,2013-07-31 11:58:00,
2013-07-31 07:13:00,62.5,61.0,29.88,South,169,0.0,4.0,96,0.00,,,0.00,weatherlink.com 1.10,2013-07-31 12:13:00,
2013-07-31 07:28:00,63.2,62.0,29.89,SSW,212,0.0,1.0,96,0.00,,,0.00,weatherlink.com 1.10,2013-07-31 12:28:00,
2013-07-31 07:43:00,64.7,64.0,29.89,West,274,1.0,2.0,96,0.00,,,0.00,weatherlink.com 1.10,2013-07-31 12:43:00,
2013-07-31 07:58:00,65.6,65.0,29.89,SE,141,0.0,2.0,96,0.00,,,0.00,weatherlink.com 1.10,2013-07-31 12:58:00,
2013-07-31 08:13:00,67.3,66.0,29.90,SW,219,0.0,0.0,96,0.00,,,0.00,weatherlink.com 1.10,2013-07-31 13:13:00,
2013-07-31 08:28:00,68.6,67.0,29.90,West,269,0.0,0.0,94,0.00,,,0.00,weatherlink.com 1.10,2013-07-31 13:28:00,
2013-07-31 08:43:00,69.1,67.0,29.90,WNW,284,0.0,4.0,93,0.00,,,0.00,weatherlink.com 1.10,2013-07-31 13:43:00,
2013-07-31 08:58:00,70.5,67.0,29.90,West,263,0.0,3.0,89,0.00,,,0.00,weatherlink.com 1.10,2013-07-31 13:58:00,
2013-07-31 09:13:00,73.1,67.0,29.90,WNW,292,0.0,3.0,82,0.00,,,0.00,weatherlink.com 1.10,2013-07-31 14:13:00,
2013-07-31 09:28:00,73.5,68.0,29.89,SW,228,0.0,2.0,83,0.00,,,0.00,weatherlink.com 1.10,2013-07-31 14:28:00,
2013-07-31 09:43:00,74.6,68.0,29.90,WNW,289,2.0,4.0,80,0.00,,,0.00,weatherlink.com 1.10,2013-07-31 14:43:00,
2013-07-31 09:58:00,74.3,67.0,29.89,WNW,295,1.0,5.0,79,0.00,,,0.00,weatherlink.com 1.10,2013-07-31 14:58:00,
2013-07-31 10:13:00,74.1,68.0,29.89,WNW,302,2.0,6.0,80,0.00,,,0.00,weatherlink.com 1.10,2013-07-31 15:13:00,
2013-07-31 10:28:00,75.1,68.0,29.89,WNW,289,0.0,5.0,79,0.00,,,0.00,weatherlink.com 1.10,2013-07-31 15:28:00,
2013-07-31 10:43:00,74.5,67.0,29.89,NW,318,2.0,5.0,76,0.00,,,0.00,weatherlink.com 1.10,2013-07-31 15:43:00,
2013-07-31 10:58:00,77.1,68.0,29.89,SSE,162,2.0,3.0,74,0.00,,,0.00,weatherlink.com 1.10,2013-07-31 15:58:00,
2013-07-31 11:13:00,76.9,68.0,29.88,NW,325,0.0,2.0,74,0.00,,,0.00,weatherlink.com 1.10,2013-07-31 16:13:00,
2013-07-31 11:28:00,77.9,68.0,29.88,NNW,340,1.0,5.0,72,0.00,,,0.00,weatherlink.com 1.10,2013-07-31 16:28:00,
2013-07-31 11:43:00,79.5,68.0,29.88,NNW,335,1.0,4.0,68,0.00,,,0.00,weatherlink.com 1.10,2013-07-31 16:43:00,
2013-07-31 11:58:00,78.7,66.0,29.88,WNW,290,2.0,5.0,66,0.00,,,0.00,weatherlink.com 1.10,2013-07-31 16:58:00,
2013-07-31 12:13:00,79.0,68.0,29.88,WNW,293,4.0,5.0,68,0.00,,,0.00,weatherlink.com 1.10,2013-07-31 17:13:00,
2013-07-31 12:28:00,79.4,67.0,29.88,WNW,283,1.0,6.0,65,0.00,,,0.00,weatherlink.com 1.10,2013-07-31 17:28:00,
2013-07-31 12:43:00,80.8,66.0,29.88,NW,305,1.0,5.0,62,0.00,,,0.00,weatherlink.com 1.10,2013-07-31 17:43:00,
2013-07-31 12:58:00,82.0,68.0,29.87,WNW,301,1.0,8.0,62,0.00,,,0.00,weatherlink.com 1.10,2013-07-31 17:58:00,
2013-07-31 13:13:00,81.9,68.0,29.87,WSW,253,4.0,6.0,62,0.00,,,0.00,weatherlink.com 1.10,2013-07-31 18:13:00,
2013-07-31 13:28:00,81.9,68.0,29.87,ESE,108,2.0,7.0,63,0.00,,,0.00,weatherlink.com 1.10,2013-07-31 18:28:00,
2013-07-31 13:43:00,83.4,69.0,29.86,NW,316,1.0,4.0,62,0.00,,,0.00,weatherlink.com 1.10,2013-07-31 18:43:00,
2013-07-31 13:58:00,82.3,69.0,29.86,West,259,2.0,5.0,64,0.00,,,0.00,weatherlink.com 1.10,2013-07-31 18:58:00,
2013-07-31 14:13:00,83.0,68.0,29.86,WNW,293,5.0,6.0,61,0.00,,,0.00,weatherlink.com 1.10,2013-07-31 19:13:00,
2013-07-31 14:28:00,84.7,68.0,29.86,SW,229,0.0,8.0,58,0.00,,,0.00,weatherlink.com 1.10,2013-07-31 19:28:00,
2013-07-31 14:44:00,84.1,68.0,29.85,WNW,283,2.0,7.0,59,0.00,,,0.00,weatherlink.com 1.10,2013-07-31 19:44:00,
2013-07-31 14:59:00,85.6,69.0,29.85,NE,51,2.0,8.0,57,0.00,,,0.00,weatherlink.com 1.10,2013-07-31 19:59:00,
2013-07-31 15:14:00,84.9,69.0,29.85,WNW,286,4.0,8.0,59,0.00,,,0.00,weatherlink.com 1.10,2013-07-31 20:14:00,
2013-07-31 15:29:00,84.9,67.0,29.85,West,281,1.0,7.0,56,0.00,,,0.00,weatherlink.com 1.10,2013-07-31 20:29:00,
2013-07-31 15:44:00,85.9,68.0,29.84,West,264,6.0,7.0,55,0.00,,,0.00,weatherlink.com 1.10,2013-07-31 20:44:00,
2013-07-31 15:59:00,85.6,68.0,29.84,WNW,293,2.0,5.0,56,0.00,,,0.00,weatherlink.com 1.10,2013-07-31 20:59:00,
2013-07-31 16:14:00,86.0,68.0,29.83,WNW,294,0.0,5.0,56,0.00,,,0.00,weatherlink.com 1.10,2013-07-31 21:14:00,
2013-07-31 16:29:00,85.7,67.0,29.82,WNW,294,3.0,5.0,53,0.00,,,0.00,weatherlink.com 1.10,2013-07-31 21:29:00,
2013-07-31 16:44:00,85.3,68.0,29.82,WSW,253,6.0,7.0,56,0.00,,,0.00,weatherlink.com 1.10,2013-07-31 21:44:00,
2013-07-31 16:59:00,85.1,68.0,29.81,West,274,1.0,4.0,56,0.00,,,0.00,weatherlink.com 1.10,2013-07-31 21:59:00,
2013-07-31 17:14:00,85.9,68.0,29.81,SSE,165,2.0,4.0,55,0.00,,,0.00,weatherlink.com 1.10,2013-07-31 22:14:00,
2013-07-31 17:29:00,86.5,68.0,29.81,NNW,335,0.0,5.0,54,0.00,,,0.00,weatherlink.com 1.10,2013-07-31 22:29:00,
2013-07-31 17:44:00,85.8,68.0,29.80,NW,305,6.0,6.0,55,0.00,,,0.00,weatherlink.com 1.10,2013-07-31 22:44:00,
2013-07-31 17:59:00,84.6,68.0,29.80,WNW,284,3.0,7.0,57,0.00,,,0.00,weatherlink.com 1.10,2013-07-31 22:59:00,
2013-07-31 18:14:00,84.4,68.0,29.80,West,280,3.0,7.0,58,0.00,,,0.00,weatherlink.com 1.10,2013-07-31 23:14:00,
2013-07-31 18:29:00,84.9,68.0,29.79,WNW,284,1.0,5.0,57,0.00,,,0.00,weatherlink.com 1.10,2013-07-31 23:29:00,
2013-07-31 18:44:00,85.4,68.0,29.79,South,191,1.0,3.0,57,0.00,,,0.00,weatherlink.com 1.10,2013-07-31 23:44:00,
2013-07-31 18:59:00,85.5,69.0,29.79,South,172,1.0,3.0,58,0.00,,,0.00,weatherlink.com 1.10,2013-07-31 23:59:00,
2013-07-31 19:14:00,84.8,69.0,29.79,WSW,245,0.0,3.0,60,0.00,,,0.00,weatherlink.com 1.10,2013-08-01 00:14:00,
2013-07-31 19:29:00,84.8,69.0,29.79,SE,136,0.0,1.0,60,0.00,,,0.00,weatherlink.com 1.10,2013-08-01 00:29:00,
2013-07-31 19:44:00,84.3,70.0,29.79,East,83,0.0,1.0,62,0.00,,,0.00,weatherlink.com 1.10,2013-08-01 00:44:00,
2013-07-31 19:59:00,83.7,70.0,29.80,East,100,0.0,0.0,63,0.00,,,0.00,weatherlink.com 1.10,2013-08-01 00:59:00,
2013-07-31 20:14:00,82.9,71.0,29.80,East,101,0.0,0.0,67,0.00,,,0.00,weatherlink.com 1.10,2013-08-01 01:14:00,
2013-07-31 20:29:00,80.8,70.0,29.80,East,101,0.0,0.0,70,0.00,,,0.00,weatherlink.com 1.10,2013-08-01 01:29:00,
2013-07-31 20:44:00,77.5,70.0,29.80,East,101,0.0,0.0,77,0.00,,,0.00,weatherlink.com 1.10,2013-08-01 01:44:00,
2013-07-31 20:59:00,74.9,69.0,29.80,East,100,0.0,0.0,82,0.00,,,0.00,weatherlink.com 1.10,2013-08-01 01:59:00,
2013-07-31 21:14:00,73.5,68.0,29.81,East,101,0.0,0.0,83,0.00,,,0.00,weatherlink.com 1.10,2013-08-01 02:14:00,
2013-07-31 21:29:00,72.8,68.0,29.81,East,101,0.0,0.0,85,0.00,,,0.00,weatherlink.com 1.10,2013-08-01 02:29:00,
2013-07-31 21:44:00,71.9,68.0,29.81,East,100,0.0,0.0,87,0.00,,,0.00,weatherlink.com 1.10,2013-08-01 02:44:00,
2013-07-31 21:59:00,71.4,67.0,29.82,East,101,0.0,0.0,87,0.00,,,0.00,weatherlink.com 1.10,2013-08-01 02:59:00,
2013-07-31 22:14:00,70.8,67.0,29.82,East,101,0.0,0.0,88,0.00,,,0.00,weatherlink.com 1.10,2013-08-01 03:14:00,
2013-07-31 22:29:00,70.0,67.0,29.83,East,101,0.0,0.0,89,0.00,,,0.00,weatherlink.com 1.10,2013-08-01 03:29:00,
2013-07-31 22:44:00,69.5,67.0,29.83,East,101,0.0,0.0,91,0.00,,,0.00,weatherlink.com 1.10,2013-08-01 03:44:00,
2013-07-31 22:59:00,69.8,67.0,29.83,East,101,0.0,0.0,90,0.00,,,0.00,weatherlink.com 1.10,2013-08-01 03:59:00,
2013-07-31 23:14:00,69.7,67.0,29.84,East,101,0.0,0.0,90,0.00,,,0.00,weatherlink.com 1.10,2013-08-01 04:14:00,
2013-07-31 23:29:00,69.6,66.0,29.84,East,100,0.0,0.0,89,0.00,,,0.00,weatherlink.com 1.10,2013-08-01 04:29:00,
2013-07-31 23:44:00,70.7,68.0,29.84,NW,326,1.0,1.0,90,0.00,,,0.00,weatherlink.com 1.10,2013-08-01 04:44:00,
2013-07-31 23:59:00,70.8,67.0,29.84,NW,306,0.0,2.0,87,0.00,,,0.00,weatherlink.com 1.10,2013-08-01 04:59:00,